Accueil
METAR-TAF:

METAR-TAF

Aéroports :

Base aérienne de Kleine-Brogel

Peer, Belgique

latitude: 51-10N, longitude: 005-28E, altitude: 55 m

Observation

Le bulletin a été fait il y a 39 minutes, à 22:55 UTC
Vent 2 kt de direction variable
Température 4°C
Humidité 93%
Pression 1017 hPa
Visibilité 10 km ou plus

METAR: EBBL 242255Z AUTO VRB02KT 9999 BKN210/// 04/03 Q1017 BLU

Heure: 00:34 (23:34 UTC)

Prévision

Le bulletin a été fait il y a 7 heures et 53 minutes, à 15:41 UTC
Prévision valable du 24 à 19 UTC au 25 à 07 UTC
Vent 4 kt de sud
Visibilité 10 km ou plus
Nuages fragmentés à une hauteur de 20000 ft

TAF: EBBL 241541Z 2419/2507 18004KT 9999 BKN200

Observations et prévisions météorologiques de plus de 4000 aéroports (messages METAR et TAF).

Les stations disponibles sont représentées par des disques jaunes et rouges sur la carte.

Passer la souris dessus pour voir le nom de la station.

Cliquer dessus pour voir les observations et prévisions météorologiques.

Pour changer de carte: cliquez sur les boutons verts avec une croix noire pour zoomer, sur le bouton vert avec un tiret pour effectuer un zoom arrière, ou sur les flèches vertes pour les cartes adjacentes.


METAR-TAF: